Time;durP1;ratioP1;P1;durP2;ratioP2;P2;SDS_P1;SDS_P2;PMS_P1;PMS_P2;Temp;Humidity;BMP_temperature;BMP_pressure;BME280_temperature;BME280_humidity;BME280_pressure;Samples;Min_cycle;Max_cycle;Signal;HPM_P1;HPM_P2
2024/03/01 00:04:05;;;;;;;16.25;5.72;;;;;;;17.99;100.00;100935.09;10475854;28;20040;-88
2024/03/01 00:09:28;;;;;;;16.67;4.78;;;;;;;17.95;100.00;100944.03;10504175;28;20067;-87
2024/03/01 00:14:52;;;;;;;11.15;4.32;;;;;;;17.95;100.00;100933.34;10513123;28;20500;-88
2024/03/01 00:20:15;;;;;;;14.50;4.70;;;;;;;17.98;100.00;100941.34;10459325;28;20049;-88
2024/03/01 00:25:38;;;;;;;14.18;5.22;;;;;;;17.74;100.00;100906.00;10487244;28;20056;-88
2024/03/01 00:31:02;;;;;;;11.73;5.75;;;;;;;17.82;100.00;100933.50;10502478;28;20103;-86
2024/03/01 00:36:25;;;;;;;10.13;4.00;;;;;;;17.76;100.00;100897.97;10474123;28;20044;-87
2024/03/01 00:41:48;;;;;;;18.15;4.57;;;;;;;17.69;100.00;100888.25;10505991;28;20069;-89
2024/03/01 00:47:14;;;;;;;10.23;4.05;;;;;;;17.87;100.00;100925.44;10475041;28;20048;-88
2024/03/01 00:52:36;;;;;;;16.73;5.50;;;;;;;17.70;100.00;100896.25;10473306;28;20435;-88
2024/03/01 00:57:58;;;;;;;11.07;5.07;;;;;;;17.68;100.00;100891.84;10466100;28;20050;-87
2024/03/01 01:03:22;;;;;;;15.60;5.80;;;;;;;17.67;100.00;100908.75;10516686;28;20044;-88
2024/03/01 01:08:45;;;;;;;11.95;5.50;;;;;;;17.64;100.00;100874.97;10473403;28;20045;-88
2024/03/01 01:14:07;;;;;;;15.65;4.88;;;;;;;17.63;100.00;100854.50;10516276;28;20053;-87
2024/03/01 01:19:31;;;;;;;16.77;5.63;;;;;;;17.63;100.00;100861.63;10472891;28;20048;-86
2024/03/01 01:24:54;;;;;;;17.88;3.92;;;;;;;17.84;100.00;100858.72;10485074;28;20064;-87
2024/03/01 01:30:17;;;;;;;16.92;5.05;;;;;;;17.87;100.00;100847.97;10512485;28;20462;-87
2024/03/01 01:35:41;;;;;;;14.80;4.97;;;;;;;17.74;100.00;100878.41;10513514;28;20052;-87
2024/03/01 01:41:05;;;;;;;16.35;5.80;;;;;;;17.56;100.00;100905.28;10494119;28;20056;-87
2024/03/01 01:46:29;;;;;;;17.67;5.35;;;;;;;17.68;100.00;100876.69;10513099;28;20056;-88
2024/03/01 01:51:54;;;;;;;17.40;5.05;;;;;;;17.72;100.00;100886.44;10481075;28;20040;-88
2024/03/01 01:57:17;;;;;;;14.98;5.22;;;;;;;17.71;100.00;100860.66;10472088;28;20037;-88
2024/03/01 02:02:41;;;;;;;14.57;4.70;;;;;;;17.68;100.00;100854.44;10479595;28;20055;-87
2024/03/01 02:08:07;;;;;;;16.50;5.30;;;;;;;17.51;100.00;100841.28;10494270;28;20067;-88
2024/03/01 02:13:30;;;;;;;13.55;4.65;;;;;;;17.54;100.00;100855.47;10480493;28;20079;-88
2024/03/01 02:18:52;;;;;;;14.88;5.75;;;;;;;17.65;100.00;100847.38;10479374;28;20044;-87
2024/03/01 02:24:18;;;;;;;13.88;5.65;;;;;;;17.67;100.00;100868.69;10493346;28;20048;-87
2024/03/01 02:29:40;;;;;;;13.77;4.35;;;;;;;17.67;100.00;100855.34;10493390;28;20140;-88
2024/03/01 02:35:02;;;;;;;15.48;4.45;;;;;;;17.80;100.00;100825.81;10506505;28;20072;-88
2024/03/01 02:40:27;;;;;;;20.77;6.43;;;;;;;17.70;100.00;100821.50;10485599;28;20037;-90
2024/03/01 02:45:50;;;;;;;15.75;4.50;;;;;;;17.76;100.00;100810.72;10502538;28;20045;-89
2024/03/01 02:51:13;;;;;;;17.30;5.22;;;;;;;18.02;100.00;100815.72;10458695;28;20523;-89
2024/03/01 02:56:37;;;;;;;12.90;5.53;;;;;;;18.00;100.00;100817.53;10475818;28;20048;-92
2024/03/01 03:02:00;;;;;;;17.55;4.93;;;;;;;18.02;100.00;100842.44;10497551;28;20061;-89
2024/03/01 03:07:22;;;;;;;17.40;6.18;;;;;;;18.00;100.00;100825.53;10441555;28;20090;-90
2024/03/01 03:12:47;;;;;;;14.27;4.40;;;;;;;17.96;99.62;100805.13;10502588;28;20427;-90
2024/03/01 03:18:10;;;;;;;15.40;4.78;;;;;;;17.97;100.00;100814.91;10491830;28;20052;-87
2024/03/01 03:23:32;;;;;;;11.73;3.58;;;;;;;18.05;95.16;100825.50;10464361;28;20129;-87
2024/03/01 03:28:57;;;;;;;22.77;5.45;;;;;;;18.15;91.19;100828.00;10477155;28;20040;-88
2024/03/01 03:34:20;;;;;;;17.48;5.57;;;;;;;18.05;100.00;100804.13;10490647;28;20055;-89
2024/03/01 03:39:42;;;;;;;12.93;4.75;;;;;;;18.00;100.00;100728.47;10490841;28;20439;-89
2024/03/01 03:45:07;;;;;;;13.00;4.28;;;;;;;18.17;99.59;100755.84;10490812;28;20049;-86
2024/03/01 03:50:31;;;;;;;12.45;4.72;;;;;;;18.27;93.51;100784.16;10472097;28;20498;-88
2024/03/01 03:55:53;;;;;;;11.25;3.92;;;;;;;18.44;88.54;100848.09;10487879;28;20041;-88
2024/03/01 04:01:17;;;;;;;20.80;4.70;;;;;;;18.10;91.07;100845.91;10473022;28;20461;-89
2024/03/01 04:06:40;;;;;;;14.43;4.60;;;;;;;18.12;98.34;100860.09;10471481;28;20076;-87
2024/03/01 04:12:05;;;;;;;15.32;4.70;;;;;;;18.27;100.00;100897.31;10515634;27;20040;-91
2024/03/01 04:17:30;;;;;;;14.65;4.78;;;;;;;18.05;100.00;100911.00;10475051;28;20487;-89
2024/03/01 04:22:53;;;;;;;15.05;5.25;;;;;;;17.93;100.00;100912.88;10466379;28;20059;-91
2024/03/01 04:28:16;;;;;;;13.88;4.57;;;;;;;17.81;100.00;100922.84;10512555;28;20055;-89
2024/03/01 04:33:41;;;;;;;20.85;5.80;;;;;;;17.73;100.00;100906.91;10473669;28;20052;-88
2024/03/01 04:39:05;;;;;;;16.20;5.28;;;;;;;17.78;100.00;100914.88;10488416;28;20056;-88
2024/03/01 04:44:28;;;;;;;12.02;5.50;;;;;;;17.69;100.00;100910.50;10503091;28;20041;-88
2024/03/01 04:49:52;;;;;;;15.02;4.50;;;;;;;17.76;100.00;100914.00;10464683;28;20066;-86
2024/03/01 04:55:15;;;;;;;11.18;4.05;;;;;;;17.77;100.00;100929.13;10486492;28;20472;-89
2024/03/01 05:00:37;;;;;;;27.80;6.70;;;;;;;17.77;100.00;100940.69;10488085;28;20044;-88
2024/03/01 05:06:03;;;;;;;15.23;4.60;;;;;;;17.82;100.00;100922.81;10471555;28;20049;-89
2024/03/01 05:11:25;;;;;;;14.45;3.72;;;;;;;17.96;100.00;100922.66;10496914;28;20070;-88
2024/03/01 05:16:48;;;;;;;12.35;4.70;;;;;;;18.14;100.00;100924.22;10520818;28;20127;-89
2024/03/01 05:22:12;;;;;;;17.35;4.57;;;;;;;17.92;100.00;100912.91;10481457;28;20135;-87
2024/03/01 05:27:35;;;;;;;17.05;4.20;;;;;;;18.24;91.09;100900.03;10494346;28;20040;-88
2024/03/01 05:32:57;;;;;;;19.42;3.83;;;;;;;18.53;84.16;100904.94;10495556;28;20105;-88
2024/03/01 05:38:22;;;;;;;15.07;4.50;;;;;;;18.57;87.54;100913.88;10523235;28;20405;-88
2024/03/01 05:43:44;;;;;;;12.85;4.00;;;;;;;18.57;91.33;100911.19;10500500;28;20051;-88
2024/03/01 05:49:06;;;;;;;8.48;3.35;;;;;;;18.64;93.80;100918.22;10508697;28;20074;-88
2024/03/01 05:54:30;;;;;;;19.17;4.60;;;;;;;18.88;96.90;100933.88;10493771;28;20093;-88
2024/03/01 05:59:54;;;;;;;17.27;4.78;;;;;;;18.75;100.00;100943.00;10502692;28;20060;-88
2024/03/01 06:05:17;;;;;;;12.70;4.15;;;;;;;18.84;100.00;100958.03;10508323;28;20424;-87
2024/03/01 06:10:41;;;;;;;14.75;3.95;;;;;;;19.02;96.91;100933.66;10487411;28;20067;-87
2024/03/01 06:16:03;;;;;;;15.60;3.97;;;;;;;19.08;98.68;100921.06;10493977;28;20362;-87
2024/03/01 06:21:26;;;;;;;14.65;4.10;;;;;;;19.26;100.00;100914.50;10479876;28;20615;-88
2024/03/01 06:26:54;;;;;;;18.50;6.97;;;;;;;19.40;100.00;100922.28;10489449;28;20403;-89
2024/03/01 06:32:16;;;;;;;17.67;5.35;;;;;;;19.62;100.00;100921.03;10476805;28;20116;-90
2024/03/01 06:37:39;;;;;;;17.13;4.68;;;;;;;19.47;100.00;100916.84;10464996;28;20094;-89
2024/03/01 06:43:03;;;;;;;18.17;4.18;;;;;;;19.73;100.00;100900.28;10468113;28;20078;-88
2024/03/01 06:48:26;;;;;;;15.38;4.20;;;;;;;19.92;94.66;100926.69;10511547;28;20240;-87
2024/03/01 06:53:48;;;;;;;14.07;3.80;;;;;;;19.74;96.61;100887.75;10507154;28;20048;-88
2024/03/01 06:59:13;;;;;;;10.88;3.83;;;;;;;20.05;89.55;100875.50;10512537;28;20056;-88
2024/03/01 07:04:35;;;;;;;14.73;4.15;;;;;;;19.95;89.89;100875.72;10460303;28;20048;-88
2024/03/01 07:09:57;;;;;;;12.45;4.18;;;;;;;19.62;96.02;100859.44;10511811;28;20106;-88
2024/03/01 07:15:21;;;;;;;19.15;5.03;;;;;;;19.62;99.73;100861.22;10477957;28;20041;-89
2024/03/01 07:20:44;;;;;;;15.65;5.00;;;;;;;19.60;100.00;100861.25;10471381;28;20049;-86
2024/03/01 07:26:06;;;;;;;14.50;4.47;;;;;;;19.64;100.00;100865.63;10483584;28;20094;-90
2024/03/01 07:31:30;;;;;;;14.43;4.00;;;;;;;19.95;100.00;100890.00;10481023;28;20048;-88
2024/03/01 07:36:53;;;;;;;9.80;3.88;;;;;;;20.31;94.16;100888.31;10464935;28;20044;-89
2024/03/01 07:42:15;;;;;;;17.50;4.90;;;;;;;20.06;99.59;100897.81;10476405;28;20053;-90
2024/03/01 07:47:43;;;;;;;15.77;4.40;;;;;;;20.25;98.84;100923.31;10451798;28;20250;-90
2024/03/01 07:53:05;;;;;;;16.05;4.97;;;;;;;20.85;92.33;100902.28;10461324;28;20048;-90
2024/03/01 07:58:32;;;;;;;17.83;4.40;;;;;;;20.31;95.29;100928.53;10496665;28;20503;-89
2024/03/01 08:04:00;;;;;;;16.92;5.30;;;;;;;20.38;95.04;100910.56;10487592;28;20053;-90
2024/03/01 08:09:36;;;;;;;21.48;5.05;;;;;;;20.47;95.29;100918.41;10509191;28;20045;-87
2024/03/01 08:15:00;;;;;;;14.18;3.95;;;;;;;21.24;88.54;100910.28;10490582;28;20056;-87
2024/03/01 08:20:55;;;;;;;18.63;4.50;;;;;;;23.39;64.93;100884.00;10472854;28;20098;-88
2024/03/01 08:26:23;;;;;;;20.08;5.25;;;;;;;22.81;64.45;100845.59;10489481;28;20056;-89
2024/03/01 08:31:46;;;;;;;19.67;4.15;;;;;;;21.40;77.83;100848.06;10462195;28;20052;-84
2024/03/01 08:37:19;;;;;;;13.80;4.65;;;;;;;22.11;72.60;100820.94;10466067;28;20135;-89
2024/03/01 08:42:42;;;;;;;10.70;3.45;;;;;;;21.46;72.95;100852.41;10474382;28;20555;-83
2024/03/01 08:48:18;;;;;;;16.17;4.22;;;;;;;22.05;71.22;100852.50;10473206;28;20061;-88
2024/03/01 08:54:00;;;;;;;17.95;4.03;;;;;;;23.13;62.41;100836.41;10458431;28;20045;-83
2024/03/01 08:59:44;;;;;;;13.32;4.93;;;;;;;22.95;61.50;100821.78;10486744;28;20056;-87
2024/03/01 09:05:09;;;;;;;15.95;4.43;;;;;;;22.25;64.58;100850.09;10462100;28;20048;-87
2024/03/01 09:10:36;;;;;;;13.75;4.07;;;;;;;23.22;60.11;100843.31;10469589;28;20063;-87
2024/03/01 09:16:01;;;;;;;9.50;2.67;;;;;;;24.70;52.43;100852.06;10497398;28;20048;-88
2024/03/01 09:21:46;;;;;;;15.35;4.68;;;;;;;23.92;51.07;100838.94;10486095;28;20052;-88
2024/03/01 09:27:26;;;;;;;12.75;3.63;;;;;;;22.19;71.07;100809.91;10460456;28;20103;-87
2024/03/01 09:32:49;;;;;;;14.02;3.75;;;;;;;22.50;65.22;100828.69;10487013;28;20056;-86
2024/03/01 09:38:14;;;;;;;17.80;5.68;;;;;;;23.67;59.23;100827.31;10488639;28;20090;-87
2024/03/01 09:43:49;;;;;;;13.10;4.43;;;;;;;24.90;53.06;100879.16;10474679;28;20049;-87
2024/03/01 09:49:25;;;;;;;12.13;4.82;;;;;;;25.37;48.05;100863.59;10468435;28;20036;-87
2024/03/01 09:55:00;;;;;;;14.50;3.92;;;;;;;25.03;49.17;100856.06;10472138;28;20052;-89
2024/03/01 10:00:31;;;;;;;14.32;4.20;;;;;;;25.04;48.57;100838.91;10474195;28;20126;-88
2024/03/01 10:06:16;;;;;;;13.35;3.50;;;;;;;24.88;43.73;100817.03;10463253;28;20050;-88
2024/03/01 10:12:12;;;;;;;13.02;4.00;;;;;;;24.40;49.04;100801.09;10478278;28;20076;-89
2024/03/01 10:17:50;;;;;;;15.20;5.00;;;;;;;23.87;51.53;100792.38;10497403;28;20052;-84
2024/03/01 10:23:34;;;;;;;17.02;4.40;;;;;;;23.23;56.27;100785.81;10476171;28;20511;-86
2024/03/01 10:29:09;;;;;;;19.60;5.00;;;;;;;22.91;61.39;100803.06;10483943;28;20478;-90
2024/03/01 10:34:43;;;;;;;19.00;5.45;;;;;;;23.16;62.82;100819.28;10485280;28;20048;-90
2024/03/01 10:40:15;;;;;;;15.85;5.20;;;;;;;22.14;70.45;100862.97;10477161;28;20139;-88
2024/03/01 10:45:46;;;;;;;17.98;6.15;;;;;;;22.04;79.69;100872.25;10478044;28;20048;-88
2024/03/01 10:51:17;;;;;;;11.27;3.60;;;;;;;23.65;60.24;100862.41;10452158;28;20052;-87
2024/03/01 10:56:39;;;;;;;15.10;5.20;;;;;;;24.17;56.08;100876.63;10509510;28;20044;-87
2024/03/01 11:02:08;;;;;;;14.18;4.30;;;;;;;23.19;59.55;100887.38;10468847;28;20454;-87
2024/03/01 11:07:46;;;;;;;15.63;4.90;;;;;;;23.57;59.06;100850.13;10476627;28;20048;-83
2024/03/01 11:13:17;;;;;;;20.15;5.18;;;;;;;23.26;60.79;100858.41;10490956;28;20044;-86
2024/03/01 11:18:45;;;;;;;13.48;4.88;;;;;;;22.66;68.14;100859.53;10489540;28;20060;-89
2024/03/01 11:24:16;;;;;;;15.80;4.90;;;;;;;22.35;74.65;100831.84;10467503;28;20056;-88
2024/03/01 11:29:45;;;;;;;21.38;5.35;;;;;;;22.09;81.82;100824.59;10463177;28;20040;-87
2024/03/01 11:41:43;;;;;;;18.85;5.53;;;;;;;24.09;66.24;100841.84;10385990;28;20161;-88
2024/03/01 11:47:25;;;;;;;21.98;5.47;;;;;;;23.54;72.27;100848.47;10417288;28;20123;-82
2024/03/01 11:52:59;;;;;;;17.85;5.40;;;;;;;22.78;79.06;100837.63;10407657;28;20052;-85
2024/03/01 11:58:28;;;;;;;18.13;5.22;;;;;;;22.00;88.54;100832.94;10394536;28;20049;-87
2024/03/01 12:04:23;;;;;;;17.85;5.32;;;;;;;21.64;93.53;100824.13;10428313;28;20051;-82
2024/03/01 12:09:55;;;;;;;15.35;5.00;;;;;;;21.26;98.09;100822.53;10453098;28;20048;-81
2024/03/01 12:15:26;;;;;;;21.88;6.10;;;;;;;21.16;99.52;100805.75;10461794;28;20060;-84
2024/03/01 12:20:57;;;;;;;18.23;5.95;;;;;;;21.11;100.00;100802.28;10454227;28;20114;-83
2024/03/01 12:26:27;;;;;;;21.63;4.85;;;;;;;21.24;100.00;100813.63;10470777;28;20055;-87
2024/03/01 12:32:11;;;;;;;18.63;5.30;;;;;;;21.26;100.00;100828.78;10467236;28;20135;-89
2024/03/01 12:37:47;;;;;;;16.92;5.68;;;;;;;21.25;100.00;100840.44;10447393;28;20068;-90
2024/03/01 12:43:25;;;;;;;20.73;6.10;;;;;;;20.85;100.00;100842.38;10456944;28;20194;-87
2024/03/01 12:49:04;;;;;;;25.23;6.85;;;;;;;19.80;100.00;100840.28;10440956;28;20060;-86
2024/03/01 12:54:38;;;;;;;21.55;6.47;;;;;;;19.27;100.00;100840.44;10456587;28;20102;-87
2024/03/01 13:00:13;;;;;;;33.33;13.32;;;;;;;18.93;100.00;100832.13;10470590;28;20053;-85
2024/03/01 13:05:37;;;;;;;28.60;10.27;;;;;;;18.79;100.00;100808.28;10454977;28;20653;-88
2024/03/01 13:11:04;;;;;;;28.23;11.35;;;;;;;18.58;100.00;100766.75;10496118;28;20044;-90
2024/03/01 13:16:28;;;;;;;51.53;36.53;;;;;;;18.61;100.00;100725.72;10455469;28;20131;-93
2024/03/01 13:22:00;;;;;;;40.85;17.27;;;;;;;18.61;100.00;100710.56;10472411;28;20056;-89
2024/03/01 13:27:33;;;;;;;55.38;36.90;;;;;;;18.49;100.00;100707.19;10450609;28;20075;-84
2024/03/01 13:33:08;;;;;;;50.10;34.80;;;;;;;18.43;100.00;100699.28;10449170;28;20044;-91
2024/03/01 13:38:49;;;;;;;10.05;5.30;;;;;;;18.24;100.00;100624.78;10497242;28;20045;-86
2024/03/01 13:44:21;;;;;;;13.70;6.47;;;;;;;18.12;100.00;100571.53;10507605;28;20152;-91
2024/03/01 13:49:50;;;;;;;13.45;5.95;;;;;;;18.14;100.00;100563.50;10466240;28;20041;-92
2024/03/01 13:55:18;;;;;;;20.30;7.05;;;;;;;17.70;100.00;100510.88;10477926;28;20746;-87
2024/03/01 14:00:49;;;;;;;14.73;4.90;;;;;;;17.83;100.00;100534.69;10454749;28;20059;-87
2024/03/01 14:06:12;;;;;;;16.88;5.00;;;;;;;18.08;100.00;100539.56;10522359;28;20551;-89
2024/03/01 14:11:36;;;;;;;23.95;13.63;;;;;;;18.46;100.00;100565.53;10519750;28;20040;-90
2024/03/01 14:17:00;;;;;;;14.70;7.03;;;;;;;19.01;100.00;100611.69;10492551;28;20060;-89
2024/03/01 14:22:23;;;;;;;13.32;5.75;;;;;;;19.58;100.00;100619.34;10464756;28;20044;-84
2024/03/01 14:27:49;;;;;;;24.88;12.77;;;;;;;19.89;100.00;100585.53;10466879;28;20076;-90
2024/03/01 14:33:13;;;;;;;25.90;10.52;;;;;;;19.99;100.00;100570.09;10462678;28;20094;-91
2024/03/01 14:38:35;;;;;;;19.02;7.20;;;;;;;20.17;100.00;100568.72;10478255;28;20059;-87
2024/03/01 14:44:00;;;;;;;21.08;9.00;;;;;;;20.14;100.00;100537.53;10473356;28;20071;-86
2024/03/01 14:49:23;;;;;;;24.42;7.70;;;;;;;19.87;100.00;100544.50;10483934;28;20049;-85
2024/03/01 14:54:46;;;;;;;23.50;6.30;;;;;;;19.62;100.00;100547.88;10461290;28;20111;-91
2024/03/01 15:00:20;;;;;;;19.38;6.13;;;;;;;19.66;100.00;100568.28;10475260;28;20136;-88
2024/03/01 15:05:44;;;;;;;21.05;6.60;;;;;;;19.63;100.00;100571.91;10448455;28;20051;-85
2024/03/01 15:11:07;;;;;;;24.77;7.32;;;;;;;19.73;100.00;100605.59;10475655;28;20053;-84
2024/03/01 15:16:31;;;;;;;8.40;3.35;;;;;;;19.71;100.00;100596.72;10470565;28;20128;-87
2024/03/01 15:21:54;;;;;;;15.27;4.75;;;;;;;19.56;100.00;100589.03;10479723;28;20154;-88
2024/03/01 15:27:25;;;;;;;17.63;4.00;;;;;;;19.43;100.00;100599.13;10484235;28;20389;-87
2024/03/01 15:32:49;;;;;;;19.02;5.88;;;;;;;19.30;100.00;100586.94;10484696;28;20489;-87
2024/03/01 15:38:12;;;;;;;15.10;4.72;;;;;;;19.30;100.00;100591.41;10454803;28;20052;-87
2024/03/01 15:43:35;;;;;;;18.02;7.07;;;;;;;19.44;100.00;100597.31;10440570;28;20056;-85
2024/03/01 15:48:59;;;;;;;13.15;5.18;;;;;;;19.37;100.00;100609.09;10473187;28;20055;-88
2024/03/01 15:54:22;;;;;;;21.60;8.90;;;;;;;19.27;100.00;100623.63;10456047;28;20057;-86
2024/03/01 15:59:44;;;;;;;24.95;12.27;;;;;;;19.19;100.00;100631.81;10482109;28;20053;-83
2024/03/01 16:05:11;;;;;;;27.48;10.40;;;;;;;19.05;100.00;100640.13;10460162;28;20052;-85
2024/03/01 16:10:33;;;;;;;24.15;6.93;;;;;;;18.64;100.00;100646.31;10470272;28;20037;-86
2024/03/01 16:15:57;;;;;;;18.30;4.43;;;;;;;18.62;100.00;100652.63;10465054;28;20146;-81
2024/03/01 16:21:22;;;;;;;14.18;2.90;;;;;;;18.49;100.00;100665.31;10448538;28;20055;-80
2024/03/01 16:26:44;;;;;;;22.08;5.05;;;;;;;18.29;100.00;100654.09;10471462;28;20048;-82
2024/03/01 16:32:23;;;;;;;22.08;5.00;;;;;;;18.08;100.00;100674.03;10496601;28;20051;-83
2024/03/01 16:37:49;;;;;;;20.52;4.95;;;;;;;17.62;100.00;100673.88;10452459;28;20098;-82
2024/03/01 16:43:33;;;;;;;17.42;4.90;;;;;;;17.61;100.00;100680.09;10500127;28;21603;-87
2024/03/01 16:48:56;;;;;;;22.65;6.15;;;;;;;17.70;100.00;100679.97;10479005;28;20048;-88
2024/03/01 16:54:26;;;;;;;22.25;5.72;;;;;;;17.75;100.00;100691.47;10478880;28;20052;-81
2024/03/01 16:59:48;;;;;;;22.13;5.25;;;;;;;17.75;100.00;100685.25;10460533;28;20077;-85
2024/03/01 17:05:12;;;;;;;21.05;5.07;;;;;;;17.62;100.00;100697.00;10487888;28;20593;-81
2024/03/01 17:10:37;;;;;;;16.45;5.00;;;;;;;17.49;100.00;100709.63;10472790;28;20087;-86
2024/03/01 17:16:00;;;;;;;24.42;5.57;;;;;;;17.27;100.00;100711.66;10471792;28;20076;-82
2024/03/01 17:21:25;;;;;;;27.30;7.00;;;;;;;17.25;100.00;100717.94;10492148;28;20063;-83
2024/03/01 17:26:50;;;;;;;18.98;6.20;;;;;;;17.73;100.00;100717.31;10459740;28;20139;-81
2024/03/01 17:32:13;;;;;;;25.10;6.88;;;;;;;17.97;100.00;100715.19;10504285;28;20052;-85
2024/03/01 17:37:36;;;;;;;18.05;6.03;;;;;;;18.05;100.00;100742.69;10471420;28;20037;-83
2024/03/01 17:43:00;;;;;;;26.95;14.52;;;;;;;18.13;100.00;100744.31;10484777;28;20052;-83
2024/03/01 17:48:22;;;;;;;57.38;36.15;;;;;;;18.25;100.00;100753.91;10457140;28;20055;-87
2024/03/01 17:53:45;;;;;;;37.13;25.95;;;;;;;18.21;100.00;100769.13;10496801;27;20048;-85
2024/03/01 17:59:10;;;;;;;38.40;9.75;;;;;;;17.81;100.00;100766.16;10477132;28;20516;-91
2024/03/01 18:04:32;;;;;;;22.38;8.38;;;;;;;16.86;100.00;100754.84;10479105;28;20119;-82
2024/03/01 18:09:55;;;;;;;30.58;8.88;;;;;;;16.57;100.00;100781.72;10478305;28;20041;-87
2024/03/01 18:15:20;;;;;;;19.52;7.75;;;;;;;16.91;100.00;100793.00;10496318;28;20576;-86
2024/03/01 18:20:43;;;;;;;19.60;5.50;;;;;;;16.84;100.00;100807.28;10515640;28;20049;-87
2024/03/01 18:26:06;;;;;;;34.35;9.32;;;;;;;16.80;100.00;100815.34;10522886;28;20095;-85
2024/03/01 18:31:30;;;;;;;38.17;14.55;;;;;;;16.63;100.00;100829.69;10473899;28;20435;-85
2024/03/01 18:36:53;;;;;;;32.25;20.80;;;;;;;16.73;100.00;100831.41;10496057;28;20055;-84
2024/03/01 18:42:15;;;;;;;33.25;21.48;;;;;;;16.86;100.00;100847.28;10493962;28;20131;-84
2024/03/01 18:47:39;;;;;;;13.63;6.20;;;;;;;16.86;100.00;100849.94;10491190;28;20048;-84
2024/03/01 18:53:02;;;;;;;35.92;23.30;;;;;;;16.79;100.00;100829.56;10479163;28;20052;-81
2024/03/01 18:58:24;;;;;;;15.45;5.25;;;;;;;16.69;100.00;100828.75;10490608;28;20044;-82
2024/03/01 19:03:50;;;;;;;30.23;16.13;;;;;;;16.69;100.00;100818.97;10479920;28;20105;-81
2024/03/01 19:09:12;;;;;;;30.85;10.05;;;;;;;16.42;100.00;100829.81;10473104;28;20055;-82
2024/03/01 19:14:35;;;;;;;21.17;5.30;;;;;;;16.12;100.00;100836.25;10473789;28;20052;-82
2024/03/01 19:20:00;;;;;;;24.08;6.35;;;;;;;15.94;100.00;100813.28;10474608;28;20048;-83
2024/03/01 19:25:25;;;;;;;31.93;15.63;;;;;;;16.09;100.00;100833.56;10496060;28;20049;-82
2024/03/01 19:30:48;;;;;;;33.13;18.25;;;;;;;16.06;100.00;100844.25;10480318;28;20662;-81
2024/03/01 19:36:12;;;;;;;53.67;30.95;;;;;;;16.19;100.00;100848.63;10490179;28;20130;-80
2024/03/01 19:41:34;;;;;;;40.47;27.17;;;;;;;16.30;100.00;100862.75;10481442;28;20053;-80
2024/03/01 19:46:57;;;;;;;29.90;15.55;;;;;;;16.32;100.00;100855.66;10460772;28;20094;-80
2024/03/01 19:52:21;;;;;;;23.92;6.88;;;;;;;16.19;100.00;100837.09;10476561;28;20045;-81
2024/03/01 19:57:43;;;;;;;23.65;8.20;;;;;;;15.80;100.00;100811.56;10503176;28;20045;-83
2024/03/01 20:03:06;;;;;;;29.52;11.98;;;;;;;15.36;100.00;100796.63;10515396;28;20045;-81
2024/03/01 20:08:30;;;;;;;23.55;8.65;;;;;;;15.30;100.00;100769.16;10487366;28;20496;-79
2024/03/01 20:13:53;;;;;;;28.42;15.27;;;;;;;15.50;100.00;100748.69;10473425;28;20102;-79
2024/03/01 20:19:16;;;;;;;48.03;29.73;;;;;;;15.49;100.00;100753.09;10473687;28;20076;-80
2024/03/01 20:24:39;;;;;;;27.90;10.98;;;;;;;15.26;100.00;100765.63;10487006;28;20059;-79
2024/03/01 20:30:02;;;;;;;28.77;7.97;;;;;;;14.99;100.00;100757.72;10473024;28;20044;-78
2024/03/01 20:35:25;;;;;;;41.03;20.80;;;;;;;15.01;100.00;100766.59;10497009;28;20535;-78
2024/03/01 20:40:50;;;;;;;44.40;15.93;;;;;;;14.95;100.00;100775.47;10487409;28;20052;-78
2024/03/01 20:46:12;;;;;;;39.80;21.15;;;;;;;15.07;100.00;100799.38;10463229;28;20415;-79
2024/03/01 20:51:35;;;;;;;41.25;12.15;;;;;;;15.39;100.00;100831.19;10473557;28;20129;-78
2024/03/01 20:57:00;;;;;;;33.13;12.05;;;;;;;15.91;100.00;100841.66;10473545;28;20616;-80
2024/03/01 21:02:22;;;;;;;38.22;11.63;;;;;;;16.08;100.00;100854.91;10486058;28;20090;-79
2024/03/01 21:07:45;;;;;;;29.00;11.02;;;;;;;16.07;100.00;100856.69;10486167;28;20055;-80
2024/03/01 21:13:08;;;;;;;49.08;16.45;;;;;;;16.03;100.00;100868.22;10485780;28;20048;-80
2024/03/01 21:18:31;;;;;;;77.97;15.40;;;;;;;15.92;100.00;100870.06;10496345;28;20101;-80
2024/03/01 21:23:53;;;;;;;79.55;17.02;;;;;;;15.81;100.00;100877.22;10469546;28;20045;-80
2024/03/01 21:29:18;;;;;;;84.43;19.05;;;;;;;15.75;100.00;100883.44;10432769;28;20045;-79
2024/03/01 21:34:40;;;;;;;84.80;14.82;;;;;;;15.70;100.00;100903.88;10445179;28;20052;-79
2024/03/01 21:40:09;;;;;;;86.10;14.95;;;;;;;15.57;100.00;100895.91;10486582;28;20060;-80
2024/03/01 21:45:33;;;;;;;69.30;18.33;;;;;;;15.23;100.00;100898.59;10487006;28;20068;-79
2024/03/01 21:50:55;;;;;;;85.70;13.95;;;;;;;15.11;100.00;100898.63;10473177;28;20052;-81
2024/03/01 21:56:19;;;;;;;125.60;29.92;;;;;;;15.32;100.00;100908.34;10490866;28;20110;-81
2024/03/01 22:01:43;;;;;;;82.03;11.63;;;;;;;15.57;100.00;100919.88;10491955;28;20041;-80
2024/03/01 22:07:06;;;;;;;71.72;11.05;;;;;;;15.37;100.00;100920.75;10481049;28;20056;-80
2024/03/01 22:12:29;;;;;;;102.20;12.25;;;;;;;15.13;100.00;100916.38;10473529;28;20045;-79
2024/03/01 22:17:53;;;;;;;89.20;16.48;;;;;;;14.88;100.00;100909.28;10478449;28;20040;-79
2024/03/01 22:23:18;;;;;;;79.68;14.88;;;;;;;14.85;100.00;100900.41;10464632;28;20059;-79
2024/03/01 22:28:43;;;;;;;85.35;11.60;;;;;;;14.65;100.00;100900.38;10502352;28;20048;-78
2024/03/01 22:34:07;;;;;;;75.45;14.38;;;;;;;14.26;100.00;100902.06;10477850;28;20595;-78
2024/03/01 22:39:30;;;;;;;121.63;43.40;;;;;;;14.00;100.00;100914.34;10464816;28;20327;-78
2024/03/01 22:44:52;;;;;;;106.70;17.95;;;;;;;13.92;100.00;100905.47;10492144;28;20442;-79
2024/03/01 22:50:17;;;;;;;103.25;29.83;;;;;;;13.71;100.00;100910.69;10478919;28;20064;-80
2024/03/01 22:55:42;;;;;;;92.60;16.05;;;;;;;13.65;100.00;100908.00;10491420;28;20492;-79
2024/03/01 23:01:05;;;;;;;86.40;15.07;;;;;;;13.45;100.00;100914.09;10491586;28;20063;-80
2024/03/01 23:06:29;;;;;;;88.50;14.02;;;;;;;13.42;100.00;100903.44;10476449;28;20044;-79
2024/03/01 23:11:52;;;;;;;112.25;36.83;;;;;;;13.33;100.00;100905.13;10476983;28;20067;-80
2024/03/01 23:17:15;;;;;;;75.28;20.02;;;;;;;13.08;100.00;100904.94;10476763;28;20049;-79
2024/03/01 23:22:43;;;;;;;81.45;16.13;;;;;;;12.95;100.00;100904.81;10490298;28;20110;-78
2024/03/01 23:28:09;;;;;;;75.15;14.40;;;;;;;12.86;100.00;100903.00;10488051;28;20044;-79
2024/03/01 23:33:31;;;;;;;98.25;26.77;;;;;;;12.80;100.00;100916.16;10472169;28;20048;-79
2024/03/01 23:38:56;;;;;;;112.63;28.75;;;;;;;12.71;100.00;100911.72;10480742;28;20048;-79
2024/03/01 23:44:18;;;;;;;112.72;32.85;;;;;;;12.75;100.00;100916.16;10475593;28;20103;-79
2024/03/01 23:49:42;;;;;;;89.72;16.42;;;;;;;12.74;100.00;100921.41;10474361;28;20037;-80
2024/03/01 23:55:09;;;;;;;79.05;14.07;;;;;;;12.60;100.00;100916.00;10464832;28;20048;-80
